Time;durP1;ratioP1;P1;durP2;ratioP2;P2;SDS_P1;SDS_P2;PMS_P1;PMS_P2;Temp;Humidity;BMP_temperature;BMP_pressure;BME280_temperature;BME280_humidity;BME280_pressure;Samples;Min_cycle;Max_cycle;Signal;HPM_P1;HPM_P2
2020/12/27 00:00:56;;;;;;;1.42;0.88;;;;;;;5.93;42.85;100370.47;5070591;28;20040;-68
2020/12/27 00:03:23;;;;;;;1.88;0.98;;;;;;;5.93;42.76;100375.91;5054904;28;20029;-68
2020/12/27 00:05:51;;;;;;;1.02;0.88;;;;;;;5.93;42.88;100362.31;5070881;28;20040;-68
2020/12/27 00:08:19;;;;;;;1.35;0.88;;;;;;;5.93;43.00;100356.88;5054640;28;20060;-67
2020/12/27 00:10:46;;;;;;;1.65;0.90;;;;;;;5.92;42.85;100349.72;5073113;28;20040;-67
2020/12/27 00:13:14;;;;;;;1.75;1.00;;;;;;;5.93;42.63;100346.03;5071327;28;20044;-68
2020/12/27 00:15:43;;;;;;;1.98;0.90;;;;;;;5.93;42.74;100334.31;5072260;28;20044;-68
2020/12/27 00:18:11;;;;;;;1.92;1.00;;;;;;;5.92;42.81;100338.03;5069140;28;20448;-68
2020/12/27 00:20:39;;;;;;;1.73;0.90;;;;;;;5.91;42.90;100328.16;5069136;28;20041;-68
2020/12/27 00:23:06;;;;;;;1.27;1.00;;;;;;;5.90;42.75;100321.84;5071211;28;20044;-68
2020/12/27 00:25:38;;;;;;;0.82;0.80;;;;;;;5.94;42.89;100308.91;5070113;28;20044;-68
2020/12/27 00:28:06;;;;;;;1.40;0.87;;;;;;;5.89;42.92;100306.53;5053691;28;20045;-68
2020/12/27 00:30:34;;;;;;;1.70;0.90;;;;;;;5.91;42.84;100301.00;5071618;28;20039;-68
2020/12/27 00:33:02;;;;;;;1.35;1.00;;;;;;;5.91;42.89;100290.13;5071236;28;20098;-68
2020/12/27 00:35:30;;;;;;;1.30;0.88;;;;;;;5.90;43.01;100291.13;5070565;28;20033;-68
2020/12/27 00:37:58;;;;;;;1.40;0.90;;;;;;;5.91;43.04;100284.72;5063718;28;20036;-68
2020/12/27 00:40:26;;;;;;;1.23;0.88;;;;;;;5.92;42.77;100275.59;5052391;28;20041;-68
2020/12/27 00:42:53;;;;;;;1.83;0.82;;;;;;;5.90;42.98;100247.69;5071367;28;20065;-68
2020/12/27 00:45:21;;;;;;;2.25;1.00;;;;;;;5.90;42.98;100247.69;5071465;28;20439;-68
2020/12/27 00:47:48;;;;;;;1.10;0.80;;;;;;;5.89;42.76;100237.81;5071608;28;20037;-68
2020/12/27 00:50:17;;;;;;;1.25;0.80;;;;;;;5.90;43.09;100234.97;5070313;28;20056;-69
2020/12/27 00:52:46;;;;;;;1.35;0.90;;;;;;;5.89;42.85;100224.25;5070800;28;20123;-69
2020/12/27 00:55:15;;;;;;;1.23;0.90;;;;;;;5.86;42.68;100210.88;5075401;28;20569;-69
2020/12/27 00:57:42;;;;;;;1.63;0.82;;;;;;;5.86;42.97;100210.88;5070589;28;20040;-67
2020/12/27 01:00:09;;;;;;;1.05;0.90;;;;;;;5.86;42.66;100202.75;5053041;28;20067;-67
2020/12/27 01:02:42;;;;;;;1.38;0.70;;;;;;;5.82;43.04;100198.56;5059091;28;20118;-67
2020/12/27 01:05:31;;;;;;;1.50;0.90;;;;;;;5.82;42.92;100193.13;5062542;28;20045;-67
2020/12/27 01:08:01;;;;;;;1.20;0.70;;;;;;;5.82;42.84;100187.69;5053235;28;20131;-67
2020/12/27 01:10:29;;;;;;;1.45;0.88;;;;;;;5.80;42.72;100166.09;5071200;28;20036;-67
2020/12/27 01:12:56;;;;;;;1.25;0.82;;;;;;;5.80;42.91;100154.38;5052701;28;20090;-67
2020/12/27 01:15:25;;;;;;;1.63;1.00;;;;;;;5.79;42.57;100149.94;5077741;28;20191;-67
2020/12/27 01:18:07;;;;;;;1.60;0.90;;;;;;;5.76;43.08;100142.88;5043356;28;20049;-67
2020/12/27 01:20:39;;;;;;;1.13;0.80;;;;;;;5.76;42.94;100144.75;5058269;28;20407;-67
2020/12/27 01:23:07;;;;;;;1.38;0.90;;;;;;;5.75;42.66;100154.75;5053055;28;20402;-67
2020/12/27 01:25:38;;;;;;;0.98;0.90;;;;;;;5.74;42.83;100157.56;5053720;28;20041;-67
2020/12/27 01:28:08;;;;;;;2.95;0.80;;;;;;;5.73;42.82;100166.69;5072456;28;20127;-67
2020/12/27 01:30:36;;;;;;;1.48;0.90;;;;;;;5.70;42.92;100143.38;5053471;28;20055;-67
2020/12/27 01:33:08;;;;;;;2.17;1.00;;;;;;;5.69;42.73;100138.91;5036326;28;20037;-67
2020/12/27 01:36:02;;;;;;;1.00;0.80;;;;;;;5.68;42.69;100103.78;5055549;28;20426;-67
2020/12/27 01:38:30;;;;;;;1.38;0.82;;;;;;;5.65;43.01;100060.59;5056718;28;20126;-67
2020/12/27 01:41:02;;;;;;;1.48;0.98;;;;;;;5.62;42.71;100052.69;5055954;28;20649;-67
2020/12/27 01:43:35;;;;;;;1.50;0.90;;;;;;;5.61;42.92;100065.38;5085269;28;20041;-67
2020/12/27 01:46:05;;;;;;;1.50;0.80;;;;;;;5.60;43.03;100061.81;5050000;28;20045;-67
2020/12/27 01:48:33;;;;;;;1.23;0.80;;;;;;;5.61;42.78;100051.81;5074177;28;20041;-67
2020/12/27 01:51:04;;;;;;;2.50;1.08;;;;;;;5.62;42.97;100047.25;5063375;28;20495;-67
2020/12/27 01:53:41;;;;;;;1.40;0.88;;;;;;;5.60;42.93;100053.66;5074018;28;20047;-67
2020/12/27 01:56:17;;;;;;;1.08;0.77;;;;;;;5.62;42.78;100039.13;5059090;28;20044;-67
2020/12/27 01:58:47;;;;;;;1.60;0.85;;;;;;;5.62;43.08;100028.28;5056329;28;20510;-67
2020/12/27 02:01:21;;;;;;;1.08;0.82;;;;;;;5.60;43.08;100014.81;5073563;28;20037;-67
2020/12/27 02:04:04;;;;;;;1.27;0.88;;;;;;;5.60;42.91;99998.53;5073875;28;20495;-67
2020/12/27 02:06:40;;;;;;;0.85;0.70;;;;;;;5.61;42.81;99981.28;5039678;28;20414;-68
2020/12/27 02:09:20;;;;;;;1.55;0.88;;;;;;;5.58;42.76;99967.97;5061862;28;20496;-68
2020/12/27 02:12:03;;;;;;;1.33;0.80;;;;;;;5.60;42.69;99966.84;5088818;28;20171;-68
2020/12/27 02:14:35;;;;;;;1.30;0.82;;;;;;;5.59;43.08;99956.97;5071310;28;20028;-68
2020/12/27 02:17:03;;;;;;;1.23;0.80;;;;;;;5.59;43.04;99956.97;5071548;28;20040;-67
2020/12/27 02:19:49;;;;;;;1.77;1.00;;;;;;;5.57;42.99;99958.97;5051664;28;20037;-68
2020/12/27 02:22:31;;;;;;;1.20;0.90;;;;;;;5.58;42.89;99949.84;5059192;28;20043;-68
2020/12/27 02:25:23;;;;;;;1.20;0.90;;;;;;;5.57;43.50;99933.69;5069109;28;20477;-68
2020/12/27 02:28:01;;;;;;;2.13;1.20;;;;;;;5.58;43.18;99940.84;5035977;28;20491;-68
2020/12/27 02:30:29;;;;;;;2.13;0.90;;;;;;;5.60;43.12;99922.59;5071994;28;20039;-68
2020/12/27 02:32:58;;;;;;;1.23;0.82;;;;;;;5.59;43.03;99918.16;5055860;28;20398;-68
2020/12/27 02:35:28;;;;;;;1.67;1.00;;;;;;;5.59;42.74;99910.88;5067398;28;20419;-68
2020/12/27 02:37:58;;;;;;;1.40;1.30;;;;;;;5.58;43.24;99884.75;5055541;28;20067;-68
2020/12/27 02:40:27;;;;;;;1.33;0.80;;;;;;;5.59;42.97;99881.03;5063274;28;20098;-67
2020/12/27 02:43:15;;;;;;;1.30;0.82;;;;;;;5.60;42.77;99873.75;5049285;28;20041;-68
2020/12/27 02:45:47;;;;;;;1.75;0.80;;;;;;;5.62;42.85;99863.63;5055747;28;20048;-68
2020/12/27 02:48:47;;;;;;;2.05;0.95;;;;;;;5.60;42.98;99855.63;5037609;28;20052;-68
2020/12/27 02:51:22;;;;;;;1.15;0.85;;;;;;;5.64;42.89;99849.97;5055245;28;20095;-68
2020/12/27 02:53:51;;;;;;;1.42;0.80;;;;;;;5.63;42.86;99818.38;5085200;28;20039;-67
2020/12/27 02:56:23;;;;;;;1.45;0.80;;;;;;;5.65;42.60;99802.84;5060980;28;20048;-68
2020/12/27 02:58:51;;;;;;;1.88;0.70;;;;;;;5.64;42.84;99804.69;5055507;28;20044;-68
2020/12/27 03:01:19;;;;;;;1.65;0.82;;;;;;;5.64;42.69;99796.56;5072367;28;20687;-67
2020/12/27 03:04:07;;;;;;;0.95;0.70;;;;;;;5.62;43.09;99793.09;5070891;28;20099;-67
2020/12/27 03:06:37;;;;;;;0.75;0.70;;;;;;;5.65;42.89;99770.28;5055631;28;20036;-68
2020/12/27 03:09:17;;;;;;;1.75;0.80;;;;;;;5.64;42.64;99771.28;5060743;28;20040;-68
2020/12/27 03:12:08;;;;;;;1.45;0.80;;;;;;;5.65;42.65;99773.00;5053314;28;20072;-68
2020/12/27 03:14:36;;;;;;;1.23;0.85;;;;;;;5.64;42.56;99747.72;5044839;28;20051;-68
2020/12/27 03:17:22;;;;;;;1.35;0.70;;;;;;;5.63;42.50;99740.56;5071885;28;20044;-68
2020/12/27 03:20:16;;;;;;;1.33;0.80;;;;;;;5.62;42.79;99713.56;5031057;28;20116;-68
2020/12/27 03:23:09;;;;;;;0.70;0.70;;;;;;;5.60;42.86;99694.69;5054038;28;20055;-68
2020/12/27 03:25:42;;;;;;;1.45;0.90;;;;;;;5.60;42.80;99705.53;5076234;28;20036;-67
2020/12/27 03:28:11;;;;;;;0.73;0.70;;;;;;;5.64;42.52;99687.19;5039698;28;20053;-68
2020/12/27 03:30:41;;;;;;;0.75;0.60;;;;;;;5.62;42.74;99662.03;5051430;28;20041;-68
2020/12/27 03:33:14;;;;;;;0.73;0.70;;;;;;;5.62;42.54;99656.59;5068973;28;20043;-68
2020/12/27 03:36:03;;;;;;;0.50;0.50;;;;;;;5.62;42.72;99652.03;5054261;28;20040;-68
2020/12/27 03:38:40;;;;;;;0.85;0.60;;;;;;;5.62;42.52;99634.88;5052192;28;20044;-68
2020/12/27 03:41:15;;;;;;;0.82;0.70;;;;;;;5.62;42.48;99614.06;5070058;28;20047;-68
2020/12/27 03:43:54;;;;;;;0.77;0.70;;;;;;;5.63;42.41;99612.19;5054168;28;20041;-68
2020/12/27 03:46:44;;;;;;;0.95;0.50;;;;;;;5.60;42.57;99608.75;5070701;28;20137;-68
2020/12/27 03:49:27;;;;;;;1.05;0.70;;;;;;;5.58;42.52;99594.47;5041843;28;20037;-68
2020/12/27 03:52:14;;;;;;;1.05;0.70;;;;;;;5.59;42.62;99581.78;5065337;28;20045;-68
2020/12/27 03:55:13;;;;;;;0.85;0.50;;;;;;;5.58;42.32;99577.34;5047286;28;20045;-68
2020/12/27 03:58:09;;;;;;;1.08;0.50;;;;;;;5.57;42.56;99562.06;5043240;28;20107;-68
2020/12/27 04:00:47;;;;;;;1.27;0.60;;;;;;;5.59;42.63;99549.22;5056366;28;20123;-68
2020/12/27 04:03:23;;;;;;;0.60;0.50;;;;;;;5.58;42.39;99542.06;5066652;28;20059;-68
2020/12/27 04:05:54;;;;;;;0.50;0.50;;;;;;;5.58;42.46;99532.09;5053489;28;20396;-68
2020/12/27 04:08:26;;;;;;;0.77;0.60;;;;;;;5.56;42.56;99531.34;5052003;28;20074;-68
2020/12/27 04:10:55;;;;;;;0.52;0.50;;;;;;;5.57;42.39;99524.09;5070350;28;20286;-68
2020/12/27 04:13:23;;;;;;;0.90;0.60;;;;;;;5.59;42.50;99501.22;5048821;28;20033;-68
2020/12/27 04:16:01;;;;;;;1.42;0.60;;;;;;;5.59;42.28;99509.38;5052603;28;20051;-68
2020/12/27 04:18:31;;;;;;;0.73;0.50;;;;;;;5.56;42.57;99506.09;5070392;28;20044;-68
2020/12/27 04:21:24;;;;;;;0.73;0.50;;;;;;;5.55;42.78;99496.22;5069218;28;20041;-68
2020/12/27 04:24:02;;;;;;;0.50;0.50;;;;;;;5.55;42.76;99488.94;5050923;28;20039;-68
2020/12/27 04:26:33;;;;;;;0.80;0.47;;;;;;;5.56;42.50;99471.69;5068307;28;20044;-68
2020/12/27 04:29:04;;;;;;;0.50;0.47;;;;;;;5.57;42.38;99480.69;5051280;28;20044;-68
2020/12/27 04:31:33;;;;;;;0.40;0.35;;;;;;;5.59;42.61;99474.09;5053929;28;20036;-68
2020/12/27 04:34:14;;;;;;;0.50;0.50;;;;;;;5.57;42.54;99473.41;5082273;28;20028;-68
2020/12/27 04:36:44;;;;;;;0.40;0.40;;;;;;;5.58;42.25;99442.56;5086545;28;20048;-68
2020/12/27 04:39:17;;;;;;;0.40;0.40;;;;;;;5.59;42.46;99448.84;5066716;28;20063;-68
2020/12/27 04:41:50;;;;;;;0.60;0.60;;;;;;;5.59;42.46;99427.16;5053535;28;20039;-68
2020/12/27 04:44:32;;;;;;;0.88;0.55;;;;;;;5.60;42.29;99434.28;5053599;28;20126;-68
2020/12/27 04:47:06;;;;;;;0.88;0.40;;;;;;;5.62;42.42;99417.88;5065024;28;20040;-68
2020/12/27 04:49:43;;;;;;;0.40;0.40;;;;;;;5.60;42.47;99407.16;5036619;28;20415;-68
2020/12/27 04:52:13;;;;;;;0.43;0.43;;;;;;;5.62;42.36;99398.88;5053434;28;20119;-68
2020/12/27 04:54:58;;;;;;;0.68;0.47;;;;;;;5.60;42.23;99385.44;5059560;28;20055;-68
2020/12/27 04:57:48;;;;;;;0.77;0.52;;;;;;;5.60;42.22;99388.16;5071036;28;20048;-68
2020/12/27 05:00:21;;;;;;;0.55;0.50;;;;;;;5.62;42.42;99391.59;5053231;28;20047;-68
2020/12/27 05:03:08;;;;;;;0.45;0.45;;;;;;;5.60;42.51;99380.88;5070961;28;20049;-68
2020/12/27 05:05:36;;;;;;;0.50;0.50;;;;;;;5.60;42.44;99370.03;5064253;28;20063;-68
2020/12/27 05:08:04;;;;;;;0.40;0.40;;;;;;;5.61;42.26;99354.63;5052699;28;20044;-68
2020/12/27 05:10:48;;;;;;;0.50;0.50;;;;;;;5.58;42.08;99350.34;5051815;28;20127;-68
2020/12/27 05:13:17;;;;;;;0.50;0.50;;;;;;;5.60;42.31;99342.03;5069052;28;20527;-68
2020/12/27 05:16:04;;;;;;;0.50;0.50;;;;;;;5.61;42.35;99335.63;5048848;28;20040;-68
2020/12/27 05:18:33;;;;;;;0.50;0.50;;;;;;;5.59;42.32;99327.63;5052269;28;20127;-68
2020/12/27 05:21:03;;;;;;;0.50;0.50;;;;;;;5.60;42.25;99342.03;5051819;28;20047;-68
2020/12/27 05:23:31;;;;;;;0.38;0.38;;;;;;;5.58;42.39;99314.22;5066591;28;20044;-68
2020/12/27 05:26:28;;;;;;;0.40;0.40;;;;;;;5.60;42.13;99304.06;5069291;28;20491;-68
2020/12/27 05:29:31;;;;;;;0.57;0.57;;;;;;;5.59;41.72;99288.81;5068749;28;20048;-68
2020/12/27 05:32:05;;;;;;;0.57;0.55;;;;;;;5.56;42.28;99298.09;5061224;28;20186;-68
2020/12/27 05:34:52;;;;;;;0.68;0.50;;;;;;;5.57;42.27;99288.09;5067372;28;20064;-68
2020/12/27 05:37:38;;;;;;;1.13;0.50;;;;;;;5.56;42.19;99278.25;5046851;28;20036;-68
2020/12/27 05:40:24;;;;;;;1.08;0.68;;;;;;;5.55;42.22;99273.81;5066978;28;20177;-68
2020/12/27 05:43:13;;;;;;;0.50;0.40;;;;;;;5.57;42.03;99271.81;5051530;28;20040;-68
2020/12/27 05:45:44;;;;;;;0.95;0.55;;;;;;;5.55;42.67;99280.09;5067309;28;20078;-68
2020/12/27 05:48:12;;;;;;;0.88;0.50;;;;;;;5.56;42.43;99265.53;5057481;28;20458;-68
2020/12/27 05:50:42;;;;;;;0.73;0.57;;;;;;;5.59;42.19;99276.09;5050111;28;20075;-67
2020/12/27 05:53:16;;;;;;;1.95;0.50;;;;;;;5.60;42.15;99269.66;5069267;28;20047;-67
2020/12/27 05:55:48;;;;;;;0.60;0.40;;;;;;;5.59;42.37;99251.66;5051907;28;20064;-67
2020/12/27 05:58:20;;;;;;;1.67;0.60;;;;;;;5.61;41.96;99243.41;5067892;28;20048;-67
2020/12/27 06:00:55;;;;;;;0.75;0.57;;;;;;;5.59;42.34;99237.28;5051428;28;20048;-68
2020/12/27 06:03:23;;;;;;;0.52;0.50;;;;;;;5.62;42.47;99217.13;5069364;28;20075;-68
2020/12/27 06:06:32;;;;;;;0.77;0.40;;;;;;;5.62;42.13;99209.00;5052667;28;20052;-68
2020/12/27 06:09:09;;;;;;;0.50;0.40;;;;;;;5.61;42.17;99194.56;5044309;28;20053;-67
2020/12/27 06:11:53;;;;;;;;;;;;;;;5.38;42.87;99198.50;5051073;28;20130;-67
2020/12/27 06:14:42;;;;;;;0.43;0.43;;;;;;;5.57;41.86;99176.88;5069038;28;19981;-67
2020/12/27 06:17:41;;;;;;;0.30;0.30;;;;;;;5.60;42.29;99163.88;5068742;28;20222;-67
2020/12/27 06:20:34;;;;;;;0.47;0.47;;;;;;;5.61;42.35;99162.03;5064924;28;20039;-67
2020/12/27 06:23:04;;;;;;;1.08;0.40;;;;;;;5.61;42.37;99156.59;5049158;28;20832;-67
2020/12/27 06:26:01;;;;;;;0.80;0.55;;;;;;;5.62;42.38;99133.91;5070903;28;20056;-67
2020/12/27 06:28:30;;;;;;;0.85;0.50;;;;;;;5.62;42.30;99133.91;5052562;28;20155;-67
2020/12/27 06:31:23;;;;;;;0.70;0.40;;;;;;;5.64;42.55;99114.78;5064397;28;20080;-67
2020/12/27 06:33:51;;;;;;;0.40;0.40;;;;;;;5.62;42.59;99122.19;5073913;28;20379;-67
2020/12/27 06:36:33;;;;;;;;;;;;;;;5.41;42.57;99087.06;5072487;28;20499;-68
2020/12/27 06:39:24;;;;;;;0.57;0.50;;;;;;;5.63;42.06;99094.06;5067934;28;19927;-67
2020/12/27 06:42:08;;;;;;;1.10;0.43;;;;;;;5.65;42.07;99065.81;5068749;28;20041;-67
2020/12/27 06:44:57;;;;;;;0.30;0.30;;;;;;;5.60;42.66;99068.94;5053426;28;20106;-67
2020/12/27 06:47:52;;;;;;;0.32;0.32;;;;;;;5.63;42.60;99056.09;5068586;28;20712;-67
2020/12/27 06:50:30;;;;;;;0.40;0.30;;;;;;;5.63;42.78;99051.53;5051562;28;20498;-67
2020/12/27 06:53:10;;;;;;;0.47;0.43;;;;;;;5.68;41.97;99057.38;5052782;28;20060;-67
2020/12/27 06:55:57;;;;;;;0.55;0.40;;;;;;;5.64;42.70;99046.97;5091629;28;20036;-67
2020/12/27 06:58:41;;;;;;;0.40;0.40;;;;;;;5.68;42.64;99040.25;5056532;28;20143;-68
2020/12/27 07:04:18;;;;;;;0.40;0.40;;;;;;;5.66;42.47;99020.56;5070065;28;20464;-67
2020/12/27 07:06:46;;;;;;;0.40;0.40;;;;;;;5.67;42.14;99014.13;5069961;28;20072;-68
2020/12/27 07:09:21;;;;;;;1.10;0.43;;;;;;;5.70;41.89;99003.81;5043809;28;20131;-68
2020/12/27 07:12:03;;;;;;;0.50;0.40;;;;;;;5.71;41.73;98996.53;5070634;28;20100;-68
2020/12/27 07:14:38;;;;;;;0.73;0.60;;;;;;;5.70;42.17;98975.84;5062768;28;20064;-67
2020/12/27 07:17:07;;;;;;;0.40;0.40;;;;;;;5.70;42.23;98982.13;5068791;28;20132;-67
2020/12/27 07:19:36;;;;;;;0.20;0.20;;;;;;;5.70;42.58;98982.13;5069497;28;20064;-68
2020/12/27 07:22:06;;;;;;;0.30;0.30;;;;;;;5.72;42.31;98971.13;5070512;28;20556;-68
2020/12/27 07:24:35;;;;;;;0.30;0.30;;;;;;;5.71;42.36;98967.56;5074881;28;20040;-68
2020/12/27 07:27:04;;;;;;;0.60;0.40;;;;;;;5.72;42.05;98965.72;5075197;28;20040;-68
2020/12/27 07:29:33;;;;;;;0.70;0.40;;;;;;;5.72;42.26;98963.84;5053291;28;20542;-68
2020/12/27 07:32:01;;;;;;;0.30;0.30;;;;;;;5.71;42.24;98932.28;5071304;28;20048;-67
2020/12/27 07:34:30;;;;;;;0.40;0.40;;;;;;;5.72;42.24;98939.44;5053693;28;20036;-68
2020/12/27 07:36:59;;;;;;;0.20;0.20;;;;;;;5.74;42.43;98948.28;5084553;28;20044;-68
2020/12/27 07:39:49;;;;;;;0.35;0.30;;;;;;;5.73;41.98;98927.59;5060163;28;20090;-68
2020/12/27 07:42:22;;;;;;;0.20;0.20;;;;;;;5.74;42.43;98920.31;5087414;28;20522;-67
2020/12/27 07:44:50;;;;;;;0.52;0.30;;;;;;;5.71;42.48;98926.88;5071955;28;20037;-68
2020/12/27 07:47:18;;;;;;;0.40;0.40;;;;;;;5.74;42.57;98894.03;5066064;28;20110;-68
2020/12/27 07:50:10;;;;;;;0.52;0.30;;;;;;;5.77;42.14;98879.28;5070025;28;20039;-68
2020/12/27 07:52:55;;;;;;;0.20;0.20;;;;;;;5.76;42.02;98885.75;5069480;28;20032;-67
2020/12/27 07:55:31;;;;;;;0.38;0.28;;;;;;;5.76;42.38;98877.59;5069369;28;20088;-68
2020/12/27 07:58:01;;;;;;;0.52;0.30;;;;;;;5.76;42.52;98886.56;5052240;28;20426;-68
2020/12/27 08:00:32;;;;;;;0.50;0.32;;;;;;;5.77;42.52;98858.44;5064003;28;20037;-68
2020/12/27 08:03:04;;;;;;;0.35;0.32;;;;;;;5.79;42.14;98844.72;5065553;28;20048;-69
2020/12/27 08:05:31;;;;;;;0.82;0.30;;;;;;;5.76;42.54;98858.63;5068171;28;20043;-66
2020/12/27 08:08:04;;;;;;;0.30;0.30;;;;;;;5.80;42.28;98838.31;5067266;28;20075;-67
2020/12/27 08:10:32;;;;;;;0.50;0.30;;;;;;;5.77;42.43;98828.59;5059172;28;20039;-67
2020/12/27 08:13:00;;;;;;;0.43;0.30;;;;;;;5.79;42.61;98832.03;5070798;28;20044;-67
2020/12/27 08:15:30;;;;;;;0.70;0.30;;;;;;;5.82;42.53;98828.16;5069461;28;20111;-67
2020/12/27 08:18:04;;;;;;;0.20;0.20;;;;;;;5.83;42.45;98821.72;5069875;28;20065;-67
2020/12/27 08:20:33;;;;;;;0.98;0.30;;;;;;;5.81;42.33;98797.47;5069015;28;20124;-67
2020/12/27 08:23:06;;;;;;;0.70;0.30;;;;;;;5.85;42.42;98801.56;5064242;28;20456;-67
2020/12/27 08:25:35;;;;;;;;;;;;;;;5.59;42.80;98798.72;5075609;28;20033;-68
2020/12/27 08:28:05;;;;;;;0.22;0.22;;;;;;;5.80;42.67;98831.03;5071654;28;19920;-67
2020/12/27 08:30:34;;;;;;;0.70;0.30;;;;;;;5.86;42.33;98788.84;5069573;28;20051;-67
2020/12/27 08:33:04;;;;;;;0.32;0.32;;;;;;;5.87;42.43;98786.00;5085451;28;20067;-67
2020/12/27 08:35:32;;;;;;;0.35;0.35;;;;;;;5.88;42.56;98779.56;5067073;28;20043;-67
2020/12/27 08:38:16;;;;;;;0.40;0.30;;;;;;;5.89;42.33;98764.13;5070569;28;20132;-67
2020/12/27 08:40:46;;;;;;;0.30;0.30;;;;;;;5.88;42.79;98781.41;5068030;28;20036;-67
2020/12/27 08:43:22;;;;;;;0.30;0.30;;;;;;;5.92;42.59;98753.81;5053171;28;20471;-67
2020/12/27 08:45:58;;;;;;;0.30;0.30;;;;;;;5.92;42.25;98742.94;5053090;28;20352;-68
2020/12/27 08:48:34;;;;;;;0.30;0.30;;;;;;;5.93;42.11;98727.53;5068634;28;20079;-68
2020/12/27 08:51:03;;;;;;;0.60;0.50;;;;;;;5.92;42.50;98723.97;5065287;28;20047;-68
2020/12/27 08:53:40;;;;;;;0.40;0.40;;;;;;;5.95;42.57;98718.22;5068783;28;20036;-68
2020/12/27 08:56:11;;;;;;;0.25;0.25;;;;;;;5.96;42.53;98713.66;5077149;28;20052;-68
2020/12/27 08:58:38;;;;;;;0.60;0.40;;;;;;;5.96;42.43;98700.09;5051047;28;20060;-68
2020/12/27 09:01:22;;;;;;;0.50;0.40;;;;;;;5.98;42.22;98689.94;5064404;28;20123;-68
2020/12/27 09:03:50;;;;;;;0.88;0.43;;;;;;;5.96;42.58;98687.38;5066899;28;20036;-68
2020/12/27 09:06:19;;;;;;;0.20;0.20;;;;;;;6.00;42.51;98665.38;5071362;28;20115;-68
2020/12/27 09:08:47;;;;;;;0.20;0.20;;;;;;;6.00;42.37;98649.94;5064291;28;20471;-68
2020/12/27 09:11:14;;;;;;;0.30;0.30;;;;;;;6.02;42.57;98650.59;5067364;28;20414;-68
2020/12/27 09:13:42;;;;;;;0.40;0.30;;;;;;;6.04;42.57;98642.31;5065084;28;20044;-68
2020/12/27 09:16:10;;;;;;;0.70;0.50;;;;;;;6.05;42.66;98646.75;5069558;28;20152;-68
2020/12/27 09:18:38;;;;;;;0.60;0.50;;;;;;;6.06;42.46;98635.72;5069242;28;20099;-68
2020/12/27 09:21:07;;;;;;;0.38;0.30;;;;;;;6.08;42.33;98636.44;5068487;28;20449;-68
2020/12/27 09:23:35;;;;;;;1.08;0.40;;;;;;;6.08;42.40;98632.88;5068267;28;20033;-68
2020/12/27 09:26:07;;;;;;;0.77;0.32;;;;;;;6.11;42.02;98630.66;5070162;28;20110;-68
2020/12/27 09:28:36;;;;;;;0.57;0.50;;;;;;;6.08;42.37;98614.72;5071636;28;20561;-68
2020/12/27 09:31:05;;;;;;;0.52;0.52;;;;;;;6.10;42.24;98609.09;5064921;28;20047;-68
2020/12/27 09:33:36;;;;;;;0.85;0.40;;;;;;;6.11;42.22;98616.25;5066976;28;20048;-68
2020/12/27 09:36:05;;;;;;;0.57;0.40;;;;;;;6.10;42.15;98612.66;5070497;28;20048;-68
2020/12/27 09:38:35;;;;;;;0.70;0.40;;;;;;;6.11;42.34;98594.53;5068177;28;20400;-68
2020/12/27 09:41:07;;;;;;;0.43;0.40;;;;;;;6.12;42.14;98599.81;5069083;28;20045;-68
2020/12/27 09:43:49;;;;;;;0.40;0.30;;;;;;;6.13;41.53;98581.66;5085343;28;20055;-68
2020/12/27 09:46:39;;;;;;;0.32;0.32;;;;;;;6.10;41.79;98562.97;5044968;28;20577;-68
2020/12/27 09:49:22;;;;;;;0.30;0.30;;;;;;;6.11;41.77;98553.81;5068609;28;20032;-68
2020/12/27 09:52:05;;;;;;;0.30;0.30;;;;;;;6.11;41.50;98548.38;5060991;28;20495;-68
2020/12/27 09:54:33;;;;;;;1.20;0.40;;;;;;;6.09;41.99;98531.44;5049609;28;20040;-68
2020/12/27 09:57:09;;;;;;;0.45;0.40;;;;;;;6.12;41.85;98523.81;5071458;28;20124;-68
2020/12/27 09:59:37;;;;;;;0.73;0.40;;;;;;;6.10;42.14;98512.25;5078689;28;20078;-67
2020/12/27 10:02:05;;;;;;;0.30;0.30;;;;;;;6.12;42.02;98509.38;5055359;28;20276;-68
2020/12/27 10:04:33;;;;;;;0.77;0.50;;;;;;;6.10;42.09;98504.09;5089219;28;20037;-68
2020/12/27 10:07:00;;;;;;;0.50;0.50;;;;;;;6.10;42.05;98506.81;5070200;28;20052;-68
2020/12/27 10:09:29;;;;;;;2.13;0.70;;;;;;;6.12;42.09;98477.66;5076821;28;20036;-67
2020/12/27 10:11:56;;;;;;;0.52;0.40;;;;;;;6.11;42.14;98484.09;5061929;28;20045;-67
2020/12/27 10:14:24;;;;;;;0.40;0.40;;;;;;;6.11;42.09;98475.94;5061725;28;20121;-67
2020/12/27 10:16:56;;;;;;;0.85;0.60;;;;;;;6.10;41.77;98460.69;5066899;28;20557;-67
2020/12/27 10:19:23;;;;;;;1.63;0.70;;;;;;;6.10;41.99;98474.25;5063038;28;20479;-68
2020/12/27 10:21:51;;;;;;;0.52;0.50;;;;;;;6.12;42.12;98460.50;5072122;28;20055;-68
2020/12/27 10:24:19;;;;;;;0.70;0.38;;;;;;;6.12;42.15;98445.09;5066214;28;20120;-68
2020/12/27 10:26:49;;;;;;;1.10;0.57;;;;;;;6.12;41.92;98409.81;5057948;28;20416;-68
2020/12/27 10:29:18;;;;;;;1.02;0.50;;;;;;;6.11;42.02;98405.38;5062141;28;20073;-68
2020/12/27 10:31:49;;;;;;;0.50;0.35;;;;;;;6.14;41.88;98417.78;5064347;28;20674;-68
2020/12/27 10:34:17;;;;;;;0.30;0.30;;;;;;;6.12;42.22;98406.22;5050290;28;20064;-68
2020/12/27 10:36:46;;;;;;;0.43;0.40;;;;;;;6.12;42.03;98401.66;5060766;28;20130;-68
2020/12/27 10:39:13;;;;;;;0.65;0.50;;;;;;;6.11;42.02;98380.94;5071088;28;20151;-68
2020/12/27 10:41:43;;;;;;;0.82;0.40;;;;;;;6.13;42.25;98357.22;5072713;28;20044;-68
2020/12/27 10:44:12;;;;;;;0.60;0.45;;;;;;;6.14;42.08;98349.94;5052944;28;20048;-68
2020/12/27 10:46:40;;;;;;;0.80;0.47;;;;;;;6.12;42.21;98351.94;5071702;28;20415;-68
2020/12/27 10:49:08;;;;;;;1.27;0.50;;;;;;;6.11;41.77;98337.53;5069167;28;20448;-68
2020/12/27 10:51:36;;;;;;;0.68;0.45;;;;;;;6.12;42.23;98333.81;5072730;28;20040;-68
2020/12/27 10:54:05;;;;;;;0.68;0.40;;;;;;;6.12;42.03;98317.50;5075157;28;20040;-68
2020/12/27 10:56:32;;;;;;;0.73;0.50;;;;;;;6.12;42.20;98327.53;5084339;28;20051;-68
2020/12/27 10:59:01;;;;;;;0.70;0.43;;;;;;;6.12;42.04;98319.38;5075875;28;20086;-68
2020/12/27 11:01:30;;;;;;;0.45;0.45;;;;;;;6.14;41.98;98306.50;5074075;28;20044;-68
2020/12/27 11:03:57;;;;;;;0.75;0.50;;;;;;;6.12;42.20;98297.66;5074015;28;20078;-67
2020/12/27 11:06:30;;;;;;;0.50;0.50;;;;;;;6.15;41.61;98290.06;5068603;28;20051;-67
2020/12/27 11:08:57;;;;;;;0.50;0.50;;;;;;;6.13;41.89;98294.78;5068400;28;20040;-68
2020/12/27 11:11:33;;;;;;;0.98;0.52;;;;;;;6.13;42.07;98272.22;5055653;28;20380;-68
2020/12/27 11:14:00;;;;;;;0.50;0.50;;;;;;;6.14;41.99;98263.06;5073628;28;20495;-68
2020/12/27 11:16:31;;;;;;;1.23;0.60;;;;;;;6.15;41.95;98251.19;5089765;28;20076;-68
2020/12/27 11:18:59;;;;;;;0.50;0.50;;;;;;;6.15;41.83;98260.19;5070419;28;20068;-68
2020/12/27 11:21:27;;;;;;;0.50;0.50;;;;;;;6.15;41.96;98243.91;5044089;28;20032;-68
2020/12/27 11:23:55;;;;;;;0.50;0.50;;;;;;;6.16;42.08;98242.91;5055996;28;20115;-68
2020/12/27 11:26:23;;;;;;;1.75;0.40;;;;;;;6.16;42.09;98236.63;5085416;28;20043;-68
2020/12/27 11:28:50;;;;;;;0.85;0.55;;;;;;;6.18;41.81;98229.13;5077387;28;20064;-68
2020/12/27 11:31:19;;;;;;;0.55;0.50;;;;;;;6.20;41.87;98218.97;5073813;28;20075;-68
2020/12/27 11:33:48;;;;;;;0.63;0.50;;;;;;;6.21;41.80;98240.50;5055605;28;20388;-68
2020/12/27 11:36:15;;;;;;;1.58;0.65;;;;;;;6.23;41.77;98199.63;5072506;28;20036;-68
2020/12/27 11:38:43;;;;;;;0.77;0.47;;;;;;;6.21;41.88;98163.66;5071857;28;20055;-68
2020/12/27 11:41:13;;;;;;;0.80;0.55;;;;;;;6.23;41.73;98169.78;5073693;28;20047;-68
2020/12/27 11:43:40;;;;;;;0.30;0.30;;;;;;;6.24;41.96;98182.34;5073351;28;20462;-68
2020/12/27 11:46:08;;;;;;;0.40;0.40;;;;;;;6.25;41.89;98163.13;5071714;28;20057;-68
2020/12/27 11:48:35;;;;;;;1.05;0.50;;;;;;;6.26;41.66;98137.69;5055605;28;20076;-68
2020/12/27 11:51:03;;;;;;;0.50;0.40;;;;;;;6.27;41.80;98142.09;5072408;28;20060;-68
2020/12/27 11:53:31;;;;;;;0.90;0.50;;;;;;;6.28;41.84;98132.09;5073522;28;20037;-68
2020/12/27 11:55:58;;;;;;;0.90;0.50;;;;;;;6.30;41.72;98133.63;5083507;28;20068;-68
2020/12/27 11:58:26;;;;;;;0.60;0.50;;;;;;;6.31;41.76;98119.03;5073105;28;20044;-68
2020/12/27 12:00:54;;;;;;;0.60;0.40;;;;;;;6.32;41.73;98104.44;5072401;28;20032;-68
2020/12/27 12:03:21;;;;;;;0.52;0.45;;;;;;;6.32;41.79;98120.72;5073023;28;20130;-68
2020/12/27 12:05:48;;;;;;;0.50;0.40;;;;;;;6.35;41.65;98095.09;5056107;28;20037;-68
2020/12/27 12:08:17;;;;;;;1.13;0.60;;;;;;;6.37;41.97;98084.91;5069779;28;20041;-68
2020/12/27 12:10:45;;;;;;;1.13;0.50;;;;;;;6.37;41.46;98076.75;5072578;28;20036;-68
2020/12/27 12:13:13;;;;;;;0.75;0.50;;;;;;;6.39;42.04;98065.72;5073120;28;20064;-68
2020/12/27 12:15:43;;;;;;;0.60;0.50;;;;;;;6.41;41.56;98050.13;5072669;28;20168;-68